createdAt,value
2019-02-08T00:00:40.865Z,1.72
2019-02-08T00:03:09.726Z,1.72
2019-02-08T00:05:38.347Z,1.60
2019-02-08T00:08:07.176Z,1.59
2019-02-08T00:10:36.115Z,1.57
2019-02-08T00:13:04.946Z,1.67
2019-02-08T00:15:33.587Z,1.64
2019-02-08T00:18:02.249Z,1.78
2019-02-08T00:20:30.870Z,1.78
2019-02-08T00:22:59.617Z,1.69
2019-02-08T00:25:28.402Z,1.69
2019-02-08T00:27:57.391Z,1.69
2019-02-08T00:30:30.036Z,1.71
2019-02-08T00:32:58.961Z,1.74
2019-02-08T00:35:27.597Z,1.76
2019-02-08T00:37:56.229Z,1.74
2019-02-08T00:40:25.749Z,1.67
2019-02-08T00:42:54.951Z,1.60
2019-02-08T00:45:24.287Z,1.57
2019-02-08T00:47:53.308Z,1.52
2019-02-08T00:50:31.987Z,1.55
2019-02-08T00:53:00.654Z,1.43
2019-02-08T00:55:29.378Z,1.47
2019-02-08T00:57:58.381Z,1.51
2019-02-08T01:00:27.153Z,1.51
2019-02-08T01:02:56.292Z,1.48
2019-02-08T01:05:26.975Z,1.45
2019-02-08T01:07:56.639Z,1.44
2019-02-08T01:10:30.698Z,1.35
2019-02-08T01:13:00.411Z,1.34
2019-02-08T01:15:33.462Z,1.29
2019-02-08T01:18:02.198Z,1.26
2019-02-08T01:20:30.914Z,1.21
2019-02-08T01:22:59.794Z,1.16
2019-02-08T01:25:30.702Z,1.14
2019-02-08T01:27:59.537Z,1.13
2019-02-08T01:30:34.992Z,1.10
2019-02-08T01:33:03.905Z,1.05
2019-02-08T01:35:32.753Z,1.05
2019-02-08T01:38:01.722Z,1.04
2019-02-08T01:40:35.546Z,1.08
2019-02-08T01:43:04.960Z,1.08
2019-02-08T01:45:34.027Z,1.07
2019-02-08T01:48:03.046Z,0.94
2019-02-08T01:50:31.967Z,1.02
2019-02-08T01:53:00.849Z,1.10
2019-02-08T01:55:29.683Z,1.15
2019-02-08T01:57:58.287Z,1.12
2019-02-08T02:00:29.759Z,1.10
2019-02-08T02:02:58.379Z,1.16
2019-02-08T02:05:27.141Z,1.13
2019-02-08T02:07:55.791Z,1.18
2019-02-08T02:10:32.882Z,1.21
2019-02-08T02:13:01.757Z,1.17
2019-02-08T02:15:30.517Z,1.15
2019-02-08T02:17:59.446Z,1.08
2019-02-08T02:20:32.877Z,1.09
2019-02-08T02:23:01.729Z,1.08
2019-02-08T02:25:31.013Z,1.08
2019-02-08T02:27:59.666Z,1.04
2019-02-08T02:30:33.885Z,1.03
2019-02-08T02:33:02.571Z,1.04
2019-02-08T02:35:31.543Z,0.95
2019-02-08T02:38:00.392Z,1.05
2019-02-08T02:40:29.088Z,1.03
2019-02-08T02:42:57.991Z,1.05
2019-02-08T02:45:29.339Z,1.06
2019-02-08T02:47:58.266Z,1.12
2019-02-08T02:50:27.127Z,1.14
2019-02-08T02:52:55.689Z,1.06
2019-02-08T02:55:26.305Z,1.04
2019-02-08T02:57:54.969Z,1.04
2019-02-08T03:00:31.864Z,1.06
2019-02-08T03:03:00.623Z,1.12
2019-02-08T03:05:29.644Z,1.18
2019-02-08T03:07:58.266Z,1.17
2019-02-08T03:10:26.915Z,1.17
2019-02-08T03:12:55.532Z,1.13
2019-02-08T03:15:25.453Z,1.14
2019-02-08T03:17:54.426Z,1.27
2019-02-08T03:20:24.348Z,1.31
2019-02-08T03:22:53.367Z,1.32
2019-02-08T03:25:29.798Z,1.34
2019-02-08T03:27:58.717Z,1.37
2019-02-08T03:30:34.629Z,1.33
2019-02-08T03:33:03.250Z,1.35
2019-02-08T03:35:32.172Z,1.35
2019-02-08T03:38:01.025Z,1.37
2019-02-08T03:40:30.848Z,1.34
2019-02-08T03:43:00.166Z,1.30
2019-02-08T03:45:30.480Z,1.28
2019-02-08T03:47:59.215Z,1.27
2019-02-08T03:50:27.929Z,1.39
2019-02-08T03:52:56.600Z,1.47
2019-02-08T03:55:25.752Z,1.54
2019-02-08T03:57:54.376Z,1.48
2019-02-08T04:00:29.891Z,1.43
2019-02-08T04:02:58.515Z,1.42
2019-02-08T04:05:27.538Z,1.39
2019-02-08T04:07:56.305Z,1.43
2019-02-08T04:10:25.009Z,1.36
2019-02-08T04:12:53.719Z,1.34
2019-02-08T04:18:00.818Z,1.19
2019-02-08T04:20:29.447Z,1.15
2019-02-08T04:22:58.065Z,1.09
2019-02-08T04:25:27.093Z,1.07
2019-02-08T04:27:56.122Z,1.03
2019-02-08T04:30:31.958Z,1.05
2019-02-08T04:33:01.784Z,1.10
2019-02-08T04:35:30.531Z,1.08
2019-02-08T04:37:59.247Z,1.09
2019-02-08T04:40:28.679Z,1.10
2019-02-08T04:42:57.390Z,1.11
2019-02-08T04:45:26.272Z,1.14
2019-02-08T04:47:54.905Z,1.15
2019-02-08T04:50:30.058Z,1.11
2019-02-08T04:53:01.554Z,0.98
2019-02-08T04:55:30.181Z,1.00
2019-02-08T04:57:58.724Z,1.12
2019-02-08T05:00:29.835Z,1.13
2019-02-08T05:02:58.556Z,1.14
2019-02-08T05:05:27.597Z,1.20
2019-02-08T05:07:56.233Z,1.13
2019-02-08T05:10:30.719Z,1.14
2019-02-08T05:12:59.339Z,1.13
2019-02-08T05:15:28.581Z,1.22
2019-02-08T05:17:57.216Z,1.22
2019-02-08T05:20:31.200Z,1.15
2019-02-08T05:23:00.128Z,1.04
2019-02-08T05:25:28.740Z,1.01
2019-02-08T05:27:57.344Z,0.95
2019-02-08T05:30:31.475Z,0.83
2019-02-08T05:33:00.214Z,0.76
2019-02-08T05:35:29.331Z,0.66
2019-02-08T05:37:58.146Z,0.64
2019-02-08T05:40:26.968Z,0.60
2019-02-08T05:42:55.720Z,0.49
2019-02-08T05:45:25.597Z,0.48
2019-02-08T05:47:54.237Z,0.54
2019-02-08T05:50:24.853Z,0.52
2019-02-08T05:52:53.737Z,0.49
2019-02-08T05:55:30.571Z,0.48
2019-02-08T05:57:59.679Z,0.67
2019-02-08T06:00:32.603Z,0.72
2019-02-08T06:03:02.123Z,0.74
2019-02-08T06:05:30.989Z,0.80
2019-02-08T06:07:59.632Z,0.84
2019-02-08T06:10:28.264Z,0.87
2019-02-08T06:12:56.933Z,0.85
2019-02-08T06:15:26.448Z,0.95
2019-02-08T06:17:55.278Z,0.94
2019-02-08T06:20:25.651Z,0.99
2019-02-08T06:22:54.557Z,0.99
2019-02-08T06:25:24.096Z,0.94
2019-02-08T06:27:53.166Z,0.89
2019-02-08T06:30:29.175Z,0.90
2019-02-08T06:32:58.265Z,0.89
2019-02-08T06:35:28.038Z,0.92
2019-02-08T06:37:56.672Z,0.98
2019-02-08T06:40:33.972Z,0.94
2019-02-08T06:43:02.593Z,1.02
2019-02-08T06:45:31.528Z,1.03
2019-02-08T06:48:00.415Z,1.11
2019-02-08T06:50:29.334Z,1.18
2019-02-08T06:52:57.967Z,1.22
2019-02-08T06:55:26.675Z,1.31
2019-02-08T06:57:59.791Z,1.39
2019-02-08T07:00:36.155Z,1.36
2019-02-08T07:03:07.159Z,1.30
2019-02-08T07:05:46.316Z,1.41
2019-02-08T07:08:32.673Z,1.39
2019-02-08T07:11:18.015Z,1.32
2019-02-08T07:13:54.075Z,1.26
2019-02-08T07:16:24.551Z,1.42
2019-02-08T07:18:54.807Z,1.58
2019-02-08T07:21:31.121Z,1.64
2019-02-08T07:24:01.383Z,1.66
2019-02-08T07:26:47.002Z,1.62
2019-02-08T07:29:17.264Z,1.64
2019-02-08T07:31:59.645Z,1.64
2019-02-08T07:34:29.846Z,1.62
2019-02-08T07:37:03.053Z,1.55
2019-02-08T07:39:38.120Z,1.58
2019-02-08T07:42:14.254Z,1.55
2019-02-08T07:44:58.598Z,1.52
2019-02-08T07:47:28.960Z,1.51
2019-02-08T07:49:59.337Z,1.58
2019-02-08T07:52:29.837Z,1.70
2019-02-08T07:55:03.093Z,1.77
2019-02-08T07:57:36.643Z,1.91
2019-02-08T08:00:15.898Z,2.00
2019-02-08T08:03:02.640Z,2.21
2019-02-08T08:05:41.945Z,2.36
2019-02-08T08:08:15.471Z,2.33
2019-02-08T08:10:48.448Z,2.23
2019-02-08T08:13:18.725Z,2.20
2019-02-08T08:15:55.210Z,2.20
2019-02-08T08:18:25.774Z,2.20
2019-02-08T08:21:02.442Z,2.25
2019-02-08T08:23:42.012Z,2.30
2019-02-08T08:26:13.006Z,2.50
2019-02-08T08:28:43.373Z,2.49
2019-02-08T08:31:15.949Z,2.52
2019-02-08T08:33:50.372Z,2.70
2019-02-08T08:36:37.032Z,2.86
2019-02-08T08:39:25.023Z,2.84
2019-02-08T08:42:17.980Z,2.80
2019-02-08T08:45:04.564Z,2.60
2019-02-08T08:47:42.014Z,2.64
2019-02-08T08:50:30.045Z,2.74
2019-02-08T08:53:07.084Z,3.04
2019-02-08T08:55:54.902Z,3.05
2019-02-08T08:58:41.277Z,3.03
2019-02-08T09:01:31.502Z,3.13
2019-02-08T09:04:03.055Z,3.22
2019-02-08T09:07:16.102Z,2.99
2019-02-08T09:09:51.746Z,3.20
2019-02-08T09:12:32.794Z,3.25
2019-02-08T09:15:16.107Z,3.23
2019-02-08T09:18:05.490Z,3.12
2019-02-08T09:20:42.931Z,2.91
2019-02-08T09:23:35.499Z,2.73
2019-02-08T09:26:22.256Z,2.88
2019-02-08T09:29:25.446Z,2.94
2019-02-08T09:32:19.814Z,3.06
2019-02-08T09:35:26.243Z,3.14
2019-02-08T09:38:19.001Z,3.29
2019-02-08T09:41:26.036Z,3.32
2019-02-08T09:44:17.484Z,3.23
2019-02-08T09:47:14.806Z,2.98
2019-02-08T09:49:55.412Z,2.94
2019-02-08T09:52:41.988Z,3.15
2019-02-08T09:55:34.583Z,3.28
2019-02-08T09:58:22.608Z,3.20
2019-02-08T10:01:17.051Z,3.03
2019-02-08T10:04:00.351Z,3.15
2019-02-08T10:06:54.602Z,3.19
2019-02-08T10:09:53.424Z,3.21
2019-02-08T10:12:48.767Z,3.14
2019-02-08T10:15:35.095Z,3.23
2019-02-08T10:18:33.833Z,3.23
2019-02-08T10:21:11.244Z,3.19
2019-02-08T10:23:59.099Z,2.94
2019-02-08T10:26:36.171Z,2.79
2019-02-08T10:29:39.417Z,2.93
2019-02-08T10:32:45.875Z,3.03
2019-02-08T10:35:36.566Z,3.07
2019-02-08T10:38:36.833Z,3.29
2019-02-08T10:41:17.136Z,3.16
2019-02-08T10:44:13.253Z,3.09
2019-02-08T10:47:01.485Z,3.07
2019-02-08T10:49:44.844Z,2.97
2019-02-08T10:52:25.279Z,2.97
2019-02-08T10:55:16.325Z,3.03
2019-02-08T10:58:12.106Z,3.03
2019-02-08T11:01:03.595Z,3.08
2019-02-08T11:03:51.756Z,3.02
2019-02-08T11:06:38.692Z,3.08
2019-02-08T11:09:30.850Z,3.19
2019-02-08T11:12:11.030Z,3.14
2019-02-08T11:15:10.111Z,2.96
2019-02-08T11:18:13.103Z,2.87
2019-02-08T11:20:41.805Z,2.79
2019-02-08T11:23:10.432Z,2.79
2019-02-08T11:25:39.065Z,2.87
2019-02-08T11:28:07.674Z,3.01
2019-02-08T11:30:36.305Z,3.13
2019-02-08T11:33:05.750Z,3.29
2019-02-08T11:35:34.321Z,3.37
2019-02-08T11:38:02.949Z,3.33
2019-02-08T11:40:31.587Z,3.33
2019-02-08T11:43:00.426Z,3.41
2019-02-08T11:45:29.158Z,3.54
2019-02-08T11:47:57.792Z,3.58
2019-02-08T11:50:27.717Z,3.66
2019-02-08T11:52:56.337Z,3.58
2019-02-08T11:55:24.973Z,3.55
2019-02-08T11:57:53.567Z,3.48
2019-02-08T12:00:38.227Z,3.30
2019-02-08T12:03:09.872Z,3.27
2019-02-08T12:05:38.429Z,3.28
2019-02-08T12:08:08.237Z,3.21
2019-02-08T12:10:36.906Z,3.13
2019-02-08T12:13:05.631Z,3.01
2019-02-08T12:15:34.363Z,3.01
2019-02-08T12:18:03.019Z,2.85
2019-02-08T12:20:31.689Z,2.84
2019-02-08T12:23:00.288Z,3.08
2019-02-08T12:25:29.154Z,3.18
2019-02-08T12:27:57.849Z,3.08
2019-02-08T12:30:32.007Z,3.13
2019-02-08T12:33:00.871Z,3.20
2019-02-08T12:35:29.501Z,3.28
2019-02-08T12:37:58.121Z,3.24
2019-02-08T12:40:26.737Z,3.21
2019-02-08T12:42:55.577Z,3.21
2019-02-08T12:45:24.701Z,3.20
2019-02-08T12:47:53.369Z,3.22
2019-02-08T12:50:22.210Z,3.16
2019-02-08T12:52:50.835Z,3.18
2019-02-08T12:55:20.915Z,3.10
2019-02-08T12:57:49.542Z,3.07
2019-02-08T13:00:25.573Z,3.02
2019-02-08T13:02:54.208Z,3.05
2019-02-08T13:05:23.022Z,3.05
2019-02-08T13:07:51.698Z,3.11
2019-02-08T13:10:30.727Z,3.19
2019-02-08T13:12:59.696Z,3.13
2019-02-08T13:15:28.351Z,3.01
2019-02-08T13:17:56.912Z,2.86
2019-02-08T13:20:25.770Z,2.76
2019-02-08T13:22:54.398Z,2.78
2019-02-08T13:25:23.125Z,2.70
2019-02-08T13:27:51.786Z,2.81
2019-02-08T13:30:35.162Z,2.76
2019-02-08T13:33:04.022Z,2.69
2019-02-08T13:35:32.590Z,2.73
2019-02-08T13:38:01.222Z,2.74
2019-02-08T13:40:30.995Z,2.69
2019-02-08T13:42:59.634Z,2.74
2019-02-08T13:45:28.563Z,2.69
2019-02-08T13:47:57.656Z,2.71
2019-02-08T13:50:36.589Z,2.77
2019-02-08T13:53:05.342Z,2.68
2019-02-08T13:55:33.960Z,2.63
2019-02-08T13:58:02.684Z,2.58
2019-02-08T14:00:36.998Z,2.65
2019-02-08T14:03:06.844Z,2.69
2019-02-08T14:05:37.099Z,2.79
2019-02-08T14:08:07.070Z,2.90
2019-02-08T14:10:35.725Z,2.86
2019-02-08T14:13:05.060Z,2.88
2019-02-08T14:15:34.727Z,2.74
2019-02-08T14:18:03.346Z,2.66
2019-02-08T14:20:32.071Z,2.66
2019-02-08T14:23:00.736Z,2.72
2019-02-08T14:25:29.293Z,2.86
2019-02-08T14:27:58.018Z,2.83
2019-02-08T14:30:38.305Z,2.71
2019-02-08T14:33:07.128Z,2.51
2019-02-08T14:35:35.987Z,2.46
2019-02-08T14:38:07.804Z,2.40
2019-02-08T14:40:36.428Z,2.39
2019-02-08T14:43:05.160Z,2.31
2019-02-08T14:45:33.827Z,2.30
2019-02-08T14:48:02.568Z,2.27
2019-02-08T14:50:31.492Z,2.26
2019-02-08T14:53:00.466Z,2.12
2019-02-08T14:55:29.390Z,2.06
2019-02-08T14:58:00.871Z,2.11
2019-02-08T15:00:29.556Z,2.05
2019-02-08T15:02:58.194Z,2.12
2019-02-08T15:05:26.894Z,2.11
2019-02-08T15:07:55.563Z,2.16
2019-02-08T15:10:32.588Z,2.13
2019-02-08T15:13:01.267Z,2.34
2019-02-08T15:15:29.874Z,2.41
2019-02-08T15:17:58.510Z,2.31
2019-02-08T15:20:29.719Z,2.45
2019-02-08T15:22:58.355Z,2.49
2019-02-08T15:25:26.978Z,2.46
2019-02-08T15:27:55.631Z,2.28
2019-02-08T15:30:29.960Z,2.34
2019-02-08T15:32:58.597Z,2.37
2019-02-08T15:35:29.651Z,2.34
2019-02-08T15:37:58.375Z,2.37
2019-02-08T15:40:32.576Z,2.46
2019-02-08T15:43:01.240Z,2.40
2019-02-08T15:45:29.855Z,2.34
2019-02-08T15:47:58.491Z,2.26
2019-02-08T15:50:27.143Z,2.23
2019-02-08T15:52:55.768Z,2.20
2019-02-08T15:55:27.252Z,2.14
2019-02-08T15:57:55.929Z,2.21
2019-02-08T16:00:30.083Z,2.30
2019-02-08T16:02:59.468Z,2.09
2019-02-08T16:05:30.211Z,1.94
2019-02-08T16:07:59.168Z,1.93
2019-02-08T16:10:27.892Z,1.96
2019-02-08T16:12:56.597Z,1.99
2019-02-08T16:15:29.951Z,2.09
2019-02-08T16:17:58.773Z,2.13
2019-02-08T16:20:29.254Z,2.03
2019-02-08T16:22:59.743Z,1.80
2019-02-08T16:25:32.675Z,1.84
2019-02-08T16:28:01.386Z,1.90
2019-02-08T16:30:32.554Z,1.72
2019-02-08T16:33:01.379Z,1.58
2019-02-08T16:35:30.641Z,1.60
2019-02-08T16:37:59.373Z,1.55
2019-02-08T16:40:29.587Z,1.68
2019-02-08T16:42:58.861Z,1.60
2019-02-08T16:45:33.098Z,1.57
2019-02-08T16:48:02.623Z,1.47
2019-02-08T16:50:33.179Z,1.57
2019-02-08T16:53:01.989Z,1.45
2019-02-08T16:55:30.607Z,1.45
2019-02-08T16:57:59.272Z,1.45
2019-02-08T17:00:30.430Z,1.39
2019-02-08T17:03:00.950Z,1.26
2019-02-08T17:05:30.406Z,1.28
2019-02-08T17:07:59.036Z,1.42
2019-02-08T17:10:27.848Z,1.41
2019-02-08T17:12:56.610Z,1.32
2019-02-08T17:15:27.711Z,1.34
2019-02-08T17:17:56.661Z,1.39
2019-02-08T17:20:48.874Z,1.40
2019-02-08T17:23:17.497Z,1.54
2019-02-08T17:25:46.329Z,1.61
2019-02-08T17:28:15.217Z,1.52
2019-02-08T17:30:43.774Z,1.61
2019-02-08T17:33:12.407Z,1.53
2019-02-08T17:35:41.273Z,1.51
2019-02-08T17:38:09.904Z,1.56
2019-02-08T17:40:49.293Z,1.58
2019-02-08T17:43:17.933Z,1.52
2019-02-08T17:45:46.492Z,1.57
2019-02-08T17:48:16.480Z,1.68
2019-02-08T17:50:45.231Z,1.69
2019-02-08T17:53:13.867Z,1.51
2019-02-08T17:55:42.528Z,1.59
2019-02-08T17:58:11.558Z,1.47
2019-02-08T18:00:53.197Z,1.41
2019-02-08T18:03:21.811Z,1.45
2019-02-08T18:05:50.512Z,1.56
2019-02-08T18:08:19.320Z,1.48
2019-02-08T18:10:47.987Z,1.49
2019-02-08T18:13:17.758Z,1.48
2019-02-08T18:15:46.628Z,1.50
2019-02-08T18:18:16.893Z,1.58
2019-02-08T18:20:48.397Z,1.54
2019-02-08T18:23:17.058Z,1.46
2019-02-08T18:25:45.692Z,1.51
2019-02-08T18:28:14.316Z,1.48
2019-02-08T18:30:42.990Z,1.34
2019-02-08T18:33:11.537Z,1.45
2019-02-08T18:35:40.161Z,1.45
2019-02-08T18:38:08.925Z,1.59
2019-02-08T18:40:37.540Z,1.48
2019-02-08T18:43:06.248Z,1.52
2019-02-08T18:45:37.371Z,1.59
2019-02-08T18:48:07.301Z,1.67
2019-02-08T18:50:41.040Z,1.58
2019-02-08T18:53:09.718Z,1.59
2019-02-08T18:55:38.343Z,1.56
2019-02-08T18:58:07.169Z,1.54
2019-02-08T19:00:40.069Z,1.54
2019-02-08T19:03:08.763Z,1.69
2019-02-08T19:05:37.421Z,1.79
2019-02-08T19:08:06.475Z,1.81
2019-02-08T19:10:35.070Z,1.69
2019-02-08T19:13:03.898Z,1.63
2019-02-08T19:15:32.561Z,1.51
2019-02-08T19:18:01.256Z,1.56
2019-02-08T19:20:30.247Z,1.56
2019-02-08T19:22:58.920Z,1.52
2019-02-08T19:25:33.050Z,1.55
2019-02-08T19:28:01.679Z,1.38
2019-02-08T19:30:33.009Z,1.41
2019-02-08T19:33:01.635Z,1.43
2019-02-08T19:35:30.434Z,1.37
2019-02-08T19:37:59.479Z,1.43
2019-02-08T19:40:33.356Z,1.44
2019-02-08T19:43:02.027Z,1.50
2019-02-08T19:45:30.678Z,1.55
2019-02-08T19:47:59.315Z,1.56
2019-02-08T19:50:30.678Z,1.54
2019-02-08T19:52:59.522Z,1.59
2019-02-08T19:55:28.557Z,1.57
2019-02-08T19:57:57.235Z,1.57
2019-02-08T20:00:34.331Z,1.51
2019-02-08T20:03:03.423Z,1.44
2019-02-08T20:05:32.052Z,1.54
2019-02-08T20:08:00.809Z,1.51
2019-02-08T20:10:34.420Z,1.53
2019-02-08T20:13:03.047Z,1.50
2019-02-08T20:15:31.786Z,1.55
2019-02-08T20:18:00.426Z,1.65
2019-02-08T20:20:29.156Z,1.62
2019-02-08T20:22:58.148Z,1.66
2019-02-08T20:25:32.208Z,1.68
2019-02-08T20:28:00.843Z,1.70
2019-02-08T20:30:31.405Z,1.71
2019-02-08T20:33:00.592Z,1.74
2019-02-08T20:35:29.618Z,1.73
2019-02-08T20:37:59.183Z,1.66
2019-02-08T20:40:38.564Z,1.62
2019-02-08T20:43:07.497Z,1.68
2019-02-08T20:45:37.600Z,1.66
2019-02-08T20:48:18.283Z,1.67
2019-02-08T20:50:47.115Z,1.71
2019-02-08T20:53:19.009Z,1.73
2019-02-08T20:55:47.666Z,1.69
2019-02-08T20:58:16.485Z,1.79
2019-02-08T21:00:50.596Z,1.79
2019-02-08T21:03:20.446Z,1.79
2019-02-08T21:05:49.489Z,1.80
2019-02-08T21:08:19.085Z,1.82
2019-02-08T21:10:47.970Z,1.82
2019-02-08T21:13:16.863Z,1.83
2019-02-08T21:15:45.497Z,1.77
2019-02-08T21:18:14.477Z,1.72
2019-02-08T21:20:43.438Z,1.70
2019-02-08T21:23:12.139Z,1.69
2019-02-08T21:25:42.114Z,1.66
2019-02-08T21:28:10.777Z,1.65
2019-02-08T21:30:39.411Z,1.67
2019-02-08T21:33:10.256Z,1.72
2019-02-08T21:35:39.003Z,1.74
2019-02-08T21:38:08.621Z,1.76
2019-02-08T21:40:37.535Z,1.74
2019-02-08T21:43:07.185Z,1.76
2019-02-08T21:45:38.470Z,1.72
2019-02-08T21:48:08.632Z,1.69
2019-02-08T21:50:37.360Z,1.76
2019-02-08T21:53:05.985Z,1.71
2019-02-08T21:55:35.417Z,1.76
2019-02-08T21:58:04.475Z,1.83
2019-02-08T22:00:35.602Z,1.78
2019-02-08T22:03:05.170Z,1.75
2019-02-08T22:05:39.374Z,1.87
2019-02-08T22:08:08.116Z,1.93
2019-02-08T22:10:37.116Z,1.92
2019-02-08T22:13:06.307Z,1.93
2019-02-08T22:15:37.302Z,1.89
2019-02-08T22:18:07.104Z,1.95
2019-02-08T22:20:35.723Z,1.94
2019-02-08T22:23:05.122Z,2.01
2019-02-08T22:25:34.158Z,2.01
2019-02-08T22:28:02.777Z,1.98
2019-02-08T22:30:31.408Z,1.95
2019-02-08T22:33:02.496Z,1.92
2019-02-08T22:35:31.236Z,1.90
2019-02-08T22:37:59.971Z,1.77
2019-02-08T22:40:28.633Z,1.84
2019-02-08T22:42:57.338Z,1.75
2019-02-08T22:45:37.621Z,1.69
2019-02-08T22:48:06.867Z,1.71
2019-02-08T22:50:35.572Z,1.76
2019-02-08T22:53:05.429Z,1.80
2019-02-08T22:55:37.589Z,1.73
2019-02-08T22:58:08.191Z,1.78
2019-02-08T23:00:44.418Z,1.68
2019-02-08T23:03:16.795Z,1.63
2019-02-08T23:05:46.248Z,1.66
2019-02-08T23:08:15.409Z,1.61
2019-02-08T23:10:44.045Z,1.57
2019-02-08T23:13:13.167Z,1.58
2019-02-08T23:15:44.803Z,1.66
2019-02-08T23:18:13.431Z,1.55
2019-02-08T23:20:42.082Z,1.59
2019-02-08T23:23:10.916Z,1.56
2019-02-08T23:25:39.535Z,1.50
2019-02-08T23:28:08.338Z,1.63
2019-02-08T23:30:37.341Z,1.55
2019-02-08T23:33:06.370Z,1.48
2019-02-08T23:35:41.848Z,1.43
2019-02-08T23:38:05.730Z,1.44
2019-02-08T23:40:34.215Z,1.39
2019-02-08T23:43:02.804Z,1.34
2019-02-08T23:45:31.427Z,1.41
2019-02-08T23:48:00.038Z,1.39
2019-02-08T23:50:28.624Z,1.43
2019-02-08T23:52:57.110Z,1.39
2019-02-08T23:55:26.639Z,1.38
2019-02-08T23:57:55.777Z,1.50
